createdAt,value
2022-12-22T00:04:15.996Z,98222.50
2022-12-22T00:09:56.679Z,98235.89
2022-12-22T00:15:37.639Z,98241.23
2022-12-22T00:21:18.424Z,98231.81
2022-12-22T00:26:59.528Z,98227.77
2022-12-22T00:32:40.714Z,98223.10
2022-12-22T00:38:21.210Z,98222.60
2022-12-22T00:44:01.911Z,98225.80
2022-12-22T00:49:44.306Z,98227.90
2022-12-22T00:55:32.944Z,98232.26
2022-12-22T01:01:13.660Z,98236.35
2022-12-22T01:06:54.944Z,98236.07
2022-12-22T01:12:41.596Z,98235.90
2022-12-22T01:18:23.243Z,98228.83
2022-12-22T01:24:04.238Z,98222.62
2022-12-22T01:29:44.827Z,98221.54
2022-12-22T01:35:34.753Z,98223.02
2022-12-22T01:41:16.960Z,98219.23
2022-12-22T01:47:03.375Z,98208.54
2022-12-22T01:52:51.799Z,98198.18
2022-12-22T01:58:41.620Z,98198.67
2022-12-22T02:04:22.917Z,98205.11
2022-12-22T02:10:17.459Z,98203.17
2022-12-22T02:16:07.255Z,98194.46
2022-12-22T02:21:50.433Z,98183.54
2022-12-22T02:27:31.689Z,98192.02
2022-12-22T02:33:12.482Z,98193.91
2022-12-22T02:39:15.663Z,98203.81
2022-12-22T02:45:08.293Z,98200.20
2022-12-22T02:50:53.304Z,98201.30
2022-12-22T02:56:34.299Z,98183.10
2022-12-22T03:02:15.477Z,98201.33
2022-12-22T03:07:56.594Z,98190.64
2022-12-22T03:13:36.801Z,98188.16
2022-12-22T03:19:17.287Z,98181.13
2022-12-22T03:24:57.772Z,98174.73
2022-12-22T03:30:20.145Z,98166.78
2022-12-22T03:35:44.342Z,98166.10
2022-12-22T03:41:06.373Z,98160.63
2022-12-22T03:46:31.044Z,98162.65
2022-12-22T03:51:53.839Z,98175.10
2022-12-22T03:57:15.785Z,98172.27
2022-12-22T04:02:37.936Z,98160.48
2022-12-22T04:07:59.749Z,98151.35
2022-12-22T04:13:21.884Z,98149.96
2022-12-22T04:18:43.916Z,98147.17
2022-12-22T04:24:06.365Z,98142.42
2022-12-22T04:29:28.151Z,98143.98
2022-12-22T04:34:50.381Z,98143.29
2022-12-22T04:40:12.429Z,98139.58
2022-12-22T04:45:34.228Z,98139.63
2022-12-22T04:50:58.075Z,98137.02
2022-12-22T04:56:20.016Z,98133.35
2022-12-22T05:01:42.084Z,98125.70
2022-12-22T05:07:04.483Z,98118.65
2022-12-22T05:12:45.063Z,98103.91
2022-12-22T05:18:06.999Z,98107.95
2022-12-22T05:23:28.918Z,98108.45
2022-12-22T05:28:50.649Z,98105.13
2022-12-22T05:34:12.580Z,98105.75
2022-12-22T05:39:34.439Z,98096.21
2022-12-22T05:44:56.539Z,98100.56
2022-12-22T05:50:21.187Z,98103.37
2022-12-22T05:55:53.139Z,98103.91
2022-12-22T06:01:14.898Z,98109.47
2022-12-22T06:06:36.897Z,98098.14
2022-12-22T06:11:58.645Z,98088.38
2022-12-22T06:17:20.657Z,98089.18
2022-12-22T06:22:42.687Z,98081.95
2022-12-22T06:28:05.017Z,98076.95
2022-12-22T06:33:26.838Z,98073.09
2022-12-22T06:38:49.992Z,98077.38
2022-12-22T06:44:11.821Z,98080.64
2022-12-22T06:49:34.038Z,98079.48
2022-12-22T06:54:55.677Z,98076.34
2022-12-22T07:00:17.943Z,98067.15
2022-12-22T07:05:39.732Z,98072.24
2022-12-22T07:11:01.663Z,98072.15
2022-12-22T07:16:23.768Z,98059.86
2022-12-22T07:21:48.244Z,98054.55
2022-12-22T07:27:10.655Z,98049.16
2022-12-22T07:32:32.386Z,98040.60
2022-12-22T07:37:54.613Z,98048.64
2022-12-22T07:43:17.948Z,98057.46
2022-12-22T07:48:58.446Z,98054.58
2022-12-22T07:54:20.573Z,98056.66
2022-12-22T07:59:42.406Z,98047.35
2022-12-22T08:05:05.190Z,98049.30
2022-12-22T08:10:27.165Z,98045.15
2022-12-22T08:15:49.257Z,98050.53
2022-12-22T08:21:11.425Z,98048.41
2022-12-22T08:26:39.162Z,98033.88
2022-12-22T08:32:01.383Z,98029.15
2022-12-22T08:37:25.641Z,98027.39
2022-12-22T08:42:48.277Z,98017.02
2022-12-22T08:48:11.007Z,98001.33
2022-12-22T08:59:14.839Z,98000.89
2022-12-22T09:04:36.871Z,97987.73
2022-12-22T09:09:58.916Z,97978.19
2022-12-22T09:15:20.821Z,97971.80
2022-12-22T09:20:42.651Z,97961.55
2022-12-22T09:26:12.459Z,97958.83
2022-12-22T09:31:34.406Z,97942.87
2022-12-22T09:36:56.807Z,97931.41
2022-12-22T09:42:20.006Z,97938.33
2022-12-22T09:47:42.134Z,97925.57
2022-12-22T09:53:05.385Z,97906.46
2022-12-22T09:58:29.807Z,97903.61
2022-12-22T10:04:05.190Z,97898.92
2022-12-22T10:15:18.302Z,97890.05
2022-12-22T10:20:46.660Z,97892.95
2022-12-22T10:26:28.186Z,97889.51
2022-12-22T10:32:00.679Z,97876.17
2022-12-22T10:37:30.921Z,97868.55
2022-12-22T10:42:56.033Z,97860.91
2022-12-22T10:48:25.941Z,97856.29
2022-12-22T10:53:50.564Z,97854.75
2022-12-22T10:59:24.127Z,97854.03
2022-12-22T11:04:46.357Z,97854.41
2022-12-22T11:10:17.639Z,97852.64
2022-12-22T11:15:59.818Z,97842.09
2022-12-22T11:21:42.711Z,97838.81
2022-12-22T11:27:28.131Z,97840.36
2022-12-22T11:33:16.168Z,97835.61
2022-12-22T11:39:05.546Z,97834.17
2022-12-22T11:45:09.655Z,97822.54
2022-12-22T11:50:59.118Z,97816.43
2022-12-22T11:56:27.536Z,97813.23
2022-12-22T12:01:56.324Z,97799.43
2022-12-22T12:07:26.473Z,97782.29
2022-12-22T12:13:02.125Z,97775.69
2022-12-22T12:18:52.088Z,97774.12
2022-12-22T12:24:13.982Z,97774.57
2022-12-22T12:29:40.726Z,97773.80
2022-12-22T12:35:19.412Z,97766.66
2022-12-22T12:40:41.139Z,97765.24
2022-12-22T12:46:42.033Z,97759.10
2022-12-22T12:52:05.240Z,97762.02
2022-12-22T12:57:33.090Z,97764.92
2022-12-22T13:03:03.973Z,97763.44
2022-12-22T13:08:27.489Z,97757.32
2022-12-22T13:13:49.970Z,97751.89
2022-12-22T13:19:17.409Z,97747.55
2022-12-22T13:24:48.978Z,97750.44
2022-12-22T13:30:16.096Z,97744.86
2022-12-22T13:35:46.709Z,97746.71
2022-12-22T13:41:21.378Z,97741.48
2022-12-22T13:46:47.202Z,97726.82
2022-12-22T13:52:17.650Z,97724.94
2022-12-22T13:57:39.644Z,97716.84
2022-12-22T14:03:01.341Z,97706.34
2022-12-22T14:08:26.919Z,97701.28
2022-12-22T14:13:49.243Z,97705.11
2022-12-22T14:19:14.634Z,97702.77
2022-12-22T14:24:43.540Z,97700.87
2022-12-22T14:30:14.820Z,97706.11
2022-12-22T14:35:36.745Z,97704.70
2022-12-22T14:40:58.562Z,97705.92
2022-12-22T14:46:20.414Z,97702.02
2022-12-22T14:51:42.820Z,97696.56
2022-12-22T14:57:15.607Z,97699.73
2022-12-22T15:02:40.877Z,97693.29
2022-12-22T15:08:08.904Z,97689.14
2022-12-22T15:13:31.615Z,97698.41
2022-12-22T15:18:53.355Z,97686.27
2022-12-22T15:24:16.474Z,97693.05
2022-12-22T15:29:38.505Z,97689.61
2022-12-22T15:35:02.659Z,97694.65
2022-12-22T15:40:25.384Z,97697.65
2022-12-22T15:45:47.055Z,97699.41
2022-12-22T15:51:24.938Z,97696.84
2022-12-22T15:56:47.127Z,97690.17
2022-12-22T16:02:13.482Z,97691.31
2022-12-22T16:07:35.902Z,97685.73
2022-12-22T16:13:03.151Z,97682.54
2022-12-22T16:18:25.154Z,97680.98
2022-12-22T16:23:48.515Z,97678.59
2022-12-22T16:29:15.761Z,97680.43
2022-12-22T16:34:37.583Z,97679.87
2022-12-22T16:39:59.618Z,97679.72
2022-12-22T16:45:23.247Z,97681.84
2022-12-22T16:50:46.885Z,97685.95
2022-12-22T16:56:14.635Z,97684.61
2022-12-22T17:01:39.325Z,97683.17
2022-12-22T17:07:01.531Z,97681.73
2022-12-22T17:12:26.045Z,97682.68
2022-12-22T17:17:48.841Z,97676.17
2022-12-22T17:23:22.742Z,97677.45
2022-12-22T17:28:45.897Z,97675.11
2022-12-22T17:34:14.390Z,97673.61
2022-12-22T17:39:38.715Z,97664.88
2022-12-22T17:45:00.522Z,97663.15
2022-12-22T17:50:24.844Z,97658.00
2022-12-22T17:56:07.898Z,97660.70
2022-12-22T18:01:32.274Z,97653.25
2022-12-22T18:06:54.124Z,97655.59
2022-12-22T18:12:18.520Z,97652.61
2022-12-22T18:17:40.673Z,97650.63
2022-12-22T18:23:02.597Z,97644.30
2022-12-22T18:28:24.528Z,97639.77
2022-12-22T18:33:46.165Z,97637.55
2022-12-22T18:39:17.446Z,97637.60
2022-12-22T18:44:39.453Z,97641.40
2022-12-22T18:50:03.082Z,97639.98
2022-12-22T18:55:29.173Z,97635.42
2022-12-22T19:00:54.025Z,97633.11
2022-12-22T19:06:18.514Z,97629.01
2022-12-22T19:11:43.146Z,97624.39
2022-12-22T19:17:12.803Z,97619.00
2022-12-22T19:22:34.838Z,97614.08
2022-12-22T19:28:01.881Z,97611.89
2022-12-22T19:33:36.065Z,97615.30
2022-12-22T19:39:04.142Z,97610.71
2022-12-22T19:44:30.149Z,97612.91
2022-12-22T19:49:51.855Z,97625.45
2022-12-22T19:55:13.705Z,97620.34
2022-12-22T20:00:36.135Z,97615.25
2022-12-22T20:05:58.165Z,97620.70
2022-12-22T20:11:20.499Z,97625.43
2022-12-22T20:16:42.760Z,97622.10
2022-12-22T20:22:04.965Z,97620.34
2022-12-22T20:27:32.107Z,97618.11
2022-12-22T20:32:54.736Z,97618.91
2022-12-22T20:38:20.782Z,97616.19
2022-12-22T20:43:45.219Z,97624.23
2022-12-22T20:49:13.871Z,97627.60
2022-12-22T20:54:35.699Z,97637.48
2022-12-22T20:59:57.426Z,97641.03
2022-12-22T21:05:19.656Z,97634.73
2022-12-22T21:10:42.319Z,97632.14
2022-12-22T21:16:11.723Z,97627.93
2022-12-22T21:21:36.483Z,97626.96
2022-12-22T21:26:58.415Z,97625.59
2022-12-22T21:32:20.080Z,97632.46
2022-12-22T21:37:43.584Z,97630.58
2022-12-22T21:43:05.409Z,97634.48
2022-12-22T21:48:27.462Z,97638.79
2022-12-22T21:53:49.587Z,97641.58
2022-12-22T21:59:11.899Z,97645.88
2022-12-22T22:04:33.827Z,97647.64
2022-12-22T22:09:55.575Z,97643.74
2022-12-22T22:15:18.088Z,97641.70
2022-12-22T22:20:41.749Z,97649.87
2022-12-22T22:26:04.754Z,97650.21
2022-12-22T22:31:26.630Z,97647.34
2022-12-22T22:36:48.529Z,97643.08
2022-12-22T22:42:10.442Z,97649.00
2022-12-22T22:47:32.371Z,97649.33
2022-12-22T22:52:54.002Z,97652.88
2022-12-22T22:58:15.829Z,97659.65
2022-12-22T23:03:38.205Z,97655.17
2022-12-22T23:09:00.993Z,97652.22
2022-12-22T23:14:24.128Z,97647.70
2022-12-22T23:19:45.955Z,97648.13
2022-12-22T23:25:08.804Z,97647.75
2022-12-22T23:30:31.061Z,97649.70
2022-12-22T23:35:55.142Z,97655.08
2022-12-22T23:41:17.085Z,97662.02
2022-12-22T23:46:40.369Z,97667.58
2022-12-22T23:52:02.750Z,97673.02
2022-12-22T23:57:26.722Z,97665.83
